sensor_id;sensor_type;location;lat;lon;timestamp;pressure;altitude;pressure_sealevel;temperature;humidity
61359;BME280;47228;46.762;23.598;2024-01-30T00:01:44;99495.91;;;-3.56;74.74
61359;BME280;47228;46.762;23.598;2024-01-30T00:04:12;99497.81;;;-3.56;75.01
61359;BME280;47228;46.762;23.598;2024-01-30T00:06:40;99499.33;;;-3.55;74.86
61359;BME280;47228;46.762;23.598;2024-01-30T00:09:08;99502.77;;;-3.54;74.86
61359;BME280;47228;46.762;23.598;2024-01-30T00:11:38;99505.86;;;-3.53;75.04
61359;BME280;47228;46.762;23.598;2024-01-30T00:14:06;99508.27;;;-3.53;74.73
61359;BME280;47228;46.762;23.598;2024-01-30T00:16:34;99510.12;;;-3.56;74.72
61359;BME280;47228;46.762;23.598;2024-01-30T00:19:02;99514.02;;;-3.58;74.90
61359;BME280;47228;46.762;23.598;2024-01-30T00:21:31;99513.91;;;-3.60;74.89
61359;BME280;47228;46.762;23.598;2024-01-30T00:23:59;99509.72;;;-3.63;74.60
61359;BME280;47228;46.762;23.598;2024-01-30T00:26:27;99514.06;;;-3.68;74.62
61359;BME280;47228;46.762;23.598;2024-01-30T00:28:55;99515.79;;;-3.73;74.66
61359;BME280;47228;46.762;23.598;2024-01-30T00:31:23;99510.58;;;-3.77;74.89
61359;BME280;47228;46.762;23.598;2024-01-30T00:33:51;99505.31;;;-3.80;75.22
61359;BME280;47228;46.762;23.598;2024-01-30T00:36:20;99504.13;;;-3.81;75.17
61359;BME280;47228;46.762;23.598;2024-01-30T00:38:48;99510.73;;;-3.81;75.06
61359;BME280;47228;46.762;23.598;2024-01-30T00:41:19;99513.16;;;-3.81;75.31
61359;BME280;47228;46.762;23.598;2024-01-30T00:43:47;99513.48;;;-3.81;75.33
61359;BME280;47228;46.762;23.598;2024-01-30T00:46:16;99515.08;;;-3.82;75.14
61359;BME280;47228;46.762;23.598;2024-01-30T00:48:44;99514.77;;;-3.83;75.17
61359;BME280;47228;46.762;23.598;2024-01-30T00:51:12;99518.71;;;-3.82;75.40
61359;BME280;47228;46.762;23.598;2024-01-30T00:53:40;99514.21;;;-3.82;75.41
61359;BME280;47228;46.762;23.598;2024-01-30T00:56:09;99509.07;;;-3.83;75.20
61359;BME280;47228;46.762;23.598;2024-01-30T00:58:40;99510.19;;;-3.85;75.15
61359;BME280;47228;46.762;23.598;2024-01-30T01:01:08;99513.98;;;-3.85;75.29
61359;BME280;47228;46.762;23.598;2024-01-30T01:03:38;99517.16;;;-3.87;74.98
61359;BME280;47228;46.762;23.598;2024-01-30T01:06:09;99514.71;;;-3.91;74.96
61359;BME280;47228;46.762;23.598;2024-01-30T01:08:36;99511.57;;;-3.94;74.88
61359;BME280;47228;46.762;23.598;2024-01-30T01:11:05;99509.86;;;-4.00;74.71
61359;BME280;47228;46.762;23.598;2024-01-30T01:13:33;99513.85;;;-4.05;74.84
61359;BME280;47228;46.762;23.598;2024-01-30T01:16:01;99517.78;;;-4.08;75.08
61359;BME280;47228;46.762;23.598;2024-01-30T01:18:29;99520.40;;;-4.09;75.13
61359;BME280;47228;46.762;23.598;2024-01-30T01:20:57;99508.79;;;-4.13;74.99
61359;BME280;47228;46.762;23.598;2024-01-30T01:23:25;99503.15;;;-4.15;75.16
61359;BME280;47228;46.762;23.598;2024-01-30T01:25:53;99498.89;;;-4.17;75.26
61359;BME280;47228;46.762;23.598;2024-01-30T01:28:26;99501.63;;;-4.16;75.63
61359;BME280;47228;46.762;23.598;2024-01-30T01:30:55;99500.34;;;-4.14;75.67
61359;BME280;47228;46.762;23.598;2024-01-30T01:33:27;99504.62;;;-4.12;75.56
61359;BME280;47228;46.762;23.598;2024-01-30T01:35:55;99506.98;;;-4.16;75.38
61359;BME280;47228;46.762;23.598;2024-01-30T01:38:23;99504.86;;;-4.19;75.47
61359;BME280;47228;46.762;23.598;2024-01-30T01:40:52;99510.51;;;-4.22;75.45
61359;BME280;47228;46.762;23.598;2024-01-30T01:43:20;99510.85;;;-4.27;75.28
61359;BME280;47228;46.762;23.598;2024-01-30T01:45:48;99506.84;;;-4.31;75.41
61359;BME280;47228;46.762;23.598;2024-01-30T01:48:16;99506.48;;;-4.35;75.48
61359;BME280;47228;46.762;23.598;2024-01-30T01:50:44;99506.80;;;-4.40;75.40
61359;BME280;47228;46.762;23.598;2024-01-30T01:53:12;99509.11;;;-4.42;75.61
61359;BME280;47228;46.762;23.598;2024-01-30T01:55:41;99509.66;;;-4.43;75.76
61359;BME280;47228;46.762;23.598;2024-01-30T01:58:10;99509.08;;;-4.46;75.59
61359;BME280;47228;46.762;23.598;2024-01-30T02:00:41;99506.88;;;-4.47;75.92
61359;BME280;47228;46.762;23.598;2024-01-30T02:03:10;99507.08;;;-4.48;76.04
61359;BME280;47228;46.762;23.598;2024-01-30T02:05:41;99511.20;;;-4.47;76.16
61359;BME280;47228;46.762;23.598;2024-01-30T02:08:10;99510.56;;;-4.48;76.08
61359;BME280;47228;46.762;23.598;2024-01-30T02:10:38;99519.72;;;-4.48;76.39
61359;BME280;47228;46.762;23.598;2024-01-30T02:13:06;99515.33;;;-4.47;76.56
61359;BME280;47228;46.762;23.598;2024-01-30T02:15:34;99515.64;;;-4.45;76.59
61359;BME280;47228;46.762;23.598;2024-01-30T02:18:02;99516.97;;;-4.49;76.02
61359;BME280;47228;46.762;23.598;2024-01-30T02:20:31;99514.87;;;-4.53;75.87
61359;BME280;47228;46.762;23.598;2024-01-30T02:23:02;99517.95;;;-4.57;76.01
61359;BME280;47228;46.762;23.598;2024-01-30T02:25:41;99514.77;;;-4.60;76.11
61359;BME280;47228;46.762;23.598;2024-01-30T02:28:13;99514.95;;;-4.60;76.47
61359;BME280;47228;46.762;23.598;2024-01-30T02:30:44;99515.48;;;-4.61;76.39
61359;BME280;47228;46.762;23.598;2024-01-30T02:33:13;99513.87;;;-4.64;76.34
61359;BME280;47228;46.762;23.598;2024-01-30T02:35:41;99512.41;;;-4.67;76.27
61359;BME280;47228;46.762;23.598;2024-01-30T02:38:09;99515.80;;;-4.70;76.30
61359;BME280;47228;46.762;23.598;2024-01-30T02:40:38;99518.76;;;-4.71;76.57
61359;BME280;47228;46.762;23.598;2024-01-30T02:43:06;99520.55;;;-4.73;76.37
61359;BME280;47228;46.762;23.598;2024-01-30T02:45:34;99525.89;;;-4.77;76.30
61359;BME280;47228;46.762;23.598;2024-01-30T02:48:02;99527.23;;;-4.81;76.39
61359;BME280;47228;46.762;23.598;2024-01-30T02:50:31;99527.70;;;-4.85;76.52
61359;BME280;47228;46.762;23.598;2024-01-30T02:52:59;99527.47;;;-4.88;76.45
61359;BME280;47228;46.762;23.598;2024-01-30T02:55:27;99528.06;;;-4.90;76.61
61359;BME280;47228;46.762;23.598;2024-01-30T02:57:55;99530.36;;;-4.92;76.58
61359;BME280;47228;46.762;23.598;2024-01-30T03:00:23;99531.77;;;-4.93;76.84
61359;BME280;47228;46.762;23.598;2024-01-30T03:02:51;99532.59;;;-4.91;76.98
61359;BME280;47228;46.762;23.598;2024-01-30T03:05:19;99533.79;;;-4.91;77.13
61359;BME280;47228;46.762;23.598;2024-01-30T03:07:48;99529.47;;;-4.91;77.12
61359;BME280;47228;46.762;23.598;2024-01-30T03:10:16;99535.52;;;-4.91;77.15
61359;BME280;47228;46.762;23.598;2024-01-30T03:12:44;99535.03;;;-4.93;77.01
61359;BME280;47228;46.762;23.598;2024-01-30T03:15:12;99540.48;;;-4.95;76.82
61359;BME280;47228;46.762;23.598;2024-01-30T03:17:41;99539.90;;;-4.99;76.69
61359;BME280;47228;46.762;23.598;2024-01-30T03:20:09;99533.69;;;-5.04;76.85
61359;BME280;47228;46.762;23.598;2024-01-30T03:22:38;99531.23;;;-5.08;76.95
61359;BME280;47228;46.762;23.598;2024-01-30T03:25:06;99532.04;;;-5.12;76.94
61359;BME280;47228;46.762;23.598;2024-01-30T03:27:34;99534.51;;;-5.13;77.12
61359;BME280;47228;46.762;23.598;2024-01-30T03:30:03;99534.21;;;-5.15;77.17
61359;BME280;47228;46.762;23.598;2024-01-30T03:32:31;99532.15;;;-5.15;77.43
61359;BME280;47228;46.762;23.598;2024-01-30T03:34:59;99529.64;;;-5.18;77.39
61359;BME280;47228;46.762;23.598;2024-01-30T03:37:27;99530.94;;;-5.21;77.32
61359;BME280;47228;46.762;23.598;2024-01-30T03:39:56;99528.03;;;-5.22;77.71
61359;BME280;47228;46.762;23.598;2024-01-30T03:42:24;99529.91;;;-5.21;77.62
61359;BME280;47228;46.762;23.598;2024-01-30T03:44:53;99527.05;;;-5.24;77.25
61359;BME280;47228;46.762;23.598;2024-01-30T03:47:23;99524.59;;;-5.27;77.35
61359;BME280;47228;46.762;23.598;2024-01-30T03:49:51;99527.63;;;-5.31;77.41
61359;BME280;47228;46.762;23.598;2024-01-30T03:52:19;99524.10;;;-5.34;77.39
61359;BME280;47228;46.762;23.598;2024-01-30T03:54:47;99521.31;;;-5.39;77.27
61359;BME280;47228;46.762;23.598;2024-01-30T03:57:15;99521.86;;;-5.40;77.57
61359;BME280;47228;46.762;23.598;2024-01-30T03:59:43;99522.44;;;-5.42;77.63
61359;BME280;47228;46.762;23.598;2024-01-30T04:02:11;99521.08;;;-5.42;77.83
61359;BME280;47228;46.762;23.598;2024-01-30T04:04:40;99519.18;;;-5.42;77.78
61359;BME280;47228;46.762;23.598;2024-01-30T04:07:08;99521.59;;;-5.42;77.77
61359;BME280;47228;46.762;23.598;2024-01-30T04:09:38;99524.65;;;-5.41;78.01
61359;BME280;47228;46.762;23.598;2024-01-30T04:12:06;99520.48;;;-5.41;78.13
61359;BME280;47228;46.762;23.598;2024-01-30T04:14:34;99522.69;;;-5.39;78.26
61359;BME280;47228;46.762;23.598;2024-01-30T04:17:03;99524.08;;;-5.39;77.97
61359;BME280;47228;46.762;23.598;2024-01-30T04:19:31;99524.61;;;-5.39;77.92
61359;BME280;47228;46.762;23.598;2024-01-30T04:21:59;99522.91;;;-5.41;77.91
61359;BME280;47228;46.762;23.598;2024-01-30T04:24:30;99523.45;;;-5.41;77.88
61359;BME280;47228;46.762;23.598;2024-01-30T04:26:59;99523.17;;;-5.43;77.80
61359;BME280;47228;46.762;23.598;2024-01-30T04:29:27;99522.69;;;-5.44;77.92
61359;BME280;47228;46.762;23.598;2024-01-30T04:31:55;99521.35;;;-5.46;77.93
61359;BME280;47228;46.762;23.598;2024-01-30T04:34:23;99522.66;;;-5.49;77.69
61359;BME280;47228;46.762;23.598;2024-01-30T04:36:52;99523.27;;;-5.52;77.70
61359;BME280;47228;46.762;23.598;2024-01-30T04:39:20;99529.66;;;-5.52;77.91
61359;BME280;47228;46.762;23.598;2024-01-30T04:41:48;99530.55;;;-5.53;77.73
61359;BME280;47228;46.762;23.598;2024-01-30T04:44:16;99531.09;;;-5.53;78.00
61359;BME280;47228;46.762;23.598;2024-01-30T04:46:44;99530.17;;;-5.52;78.07
61359;BME280;47228;46.762;23.598;2024-01-30T04:49:12;99529.58;;;-5.54;77.68
61359;BME280;47228;46.762;23.598;2024-01-30T04:51:41;99526.88;;;-5.57;77.75
61359;BME280;47228;46.762;23.598;2024-01-30T04:54:09;99528.88;;;-5.61;77.65
61359;BME280;47228;46.762;23.598;2024-01-30T04:56:37;99534.61;;;-5.62;77.80
61359;BME280;47228;46.762;23.598;2024-01-30T04:59:06;99537.92;;;-5.63;77.88
61359;BME280;47228;46.762;23.598;2024-01-30T05:01:36;99536.23;;;-5.64;77.90
61359;BME280;47228;46.762;23.598;2024-01-30T05:04:07;99533.91;;;-5.67;77.74
61359;BME280;47228;46.762;23.598;2024-01-30T05:06:37;99539.18;;;-5.70;77.70
61359;BME280;47228;46.762;23.598;2024-01-30T05:09:05;99540.60;;;-5.72;77.90
61359;BME280;47228;46.762;23.598;2024-01-30T05:11:41;99540.08;;;-5.71;78.12
61359;BME280;47228;46.762;23.598;2024-01-30T05:14:09;99538.66;;;-5.70;78.17
61359;BME280;47228;46.762;23.598;2024-01-30T05:16:39;99536.77;;;-5.71;78.04
61359;BME280;47228;46.762;23.598;2024-01-30T05:19:07;99536.81;;;-5.72;77.92
61359;BME280;47228;46.762;23.598;2024-01-30T05:21:35;99536.73;;;-5.75;77.90
61359;BME280;47228;46.762;23.598;2024-01-30T05:24:03;99535.36;;;-5.75;78.14
61359;BME280;47228;46.762;23.598;2024-01-30T05:26:31;99534.86;;;-5.76;77.99
61359;BME280;47228;46.762;23.598;2024-01-30T05:28:59;99532.75;;;-5.80;77.59
61359;BME280;47228;46.762;23.598;2024-01-30T05:31:27;99537.17;;;-5.84;77.59
61359;BME280;47228;46.762;23.598;2024-01-30T05:33:56;99539.17;;;-5.88;77.71
61359;BME280;47228;46.762;23.598;2024-01-30T05:36:24;99538.10;;;-5.92;77.70
61359;BME280;47228;46.762;23.598;2024-01-30T05:38:52;99537.70;;;-5.97;77.74
61359;BME280;47228;46.762;23.598;2024-01-30T05:41:20;99539.33;;;-5.99;77.99
61359;BME280;47228;46.762;23.598;2024-01-30T05:43:49;99542.77;;;-5.99;78.19
61359;BME280;47228;46.762;23.598;2024-01-30T05:46:17;99545.32;;;-5.97;78.30
61359;BME280;47228;46.762;23.598;2024-01-30T05:48:48;99548.64;;;-5.93;78.69
61359;BME280;47228;46.762;23.598;2024-01-30T05:51:17;99549.67;;;-5.87;78.95
61359;BME280;47228;46.762;23.598;2024-01-30T05:53:45;99551.72;;;-5.80;79.12
61359;BME280;47228;46.762;23.598;2024-01-30T05:56:13;99555.48;;;-5.72;79.28
61359;BME280;47228;46.762;23.598;2024-01-30T05:58:41;99559.73;;;-5.65;79.09
61359;BME280;47228;46.762;23.598;2024-01-30T06:01:10;99562.42;;;-5.63;78.46
61359;BME280;47228;46.762;23.598;2024-01-30T06:03:39;99566.61;;;-5.64;78.06
61359;BME280;47228;46.762;23.598;2024-01-30T06:06:07;99568.08;;;-5.67;78.17
61359;BME280;47228;46.762;23.598;2024-01-30T06:08:35;99568.13;;;-5.68;78.08
61359;BME280;47228;46.762;23.598;2024-01-30T06:11:03;99569.83;;;-5.74;77.78
61359;BME280;47228;46.762;23.598;2024-01-30T06:13:32;99573.38;;;-5.77;77.86
61359;BME280;47228;46.762;23.598;2024-01-30T06:16:00;99572.30;;;-5.81;77.87
61359;BME280;47228;46.762;23.598;2024-01-30T06:18:28;99575.15;;;-5.85;77.98
61359;BME280;47228;46.762;23.598;2024-01-30T06:20:59;99576.92;;;-5.86;78.10
61359;BME280;47228;46.762;23.598;2024-01-30T06:23:27;99576.43;;;-5.87;78.01
61359;BME280;47228;46.762;23.598;2024-01-30T06:25:55;99578.88;;;-5.88;78.08
61359;BME280;47228;46.762;23.598;2024-01-30T06:28:23;99581.05;;;-5.86;78.29
61359;BME280;47228;46.762;23.598;2024-01-30T06:30:51;99583.08;;;-5.84;78.32
61359;BME280;47228;46.762;23.598;2024-01-30T06:33:19;99585.54;;;-5.80;78.61
61359;BME280;47228;46.762;23.598;2024-01-30T06:35:48;99589.17;;;-5.74;78.94
61359;BME280;47228;46.762;23.598;2024-01-30T06:38:16;99589.64;;;-5.66;79.21
61359;BME280;47228;46.762;23.598;2024-01-30T06:40:44;99589.64;;;-5.60;79.09
61359;BME280;47228;46.762;23.598;2024-01-30T06:43:12;99588.42;;;-5.54;79.09
61359;BME280;47228;46.762;23.598;2024-01-30T06:45:40;99590.45;;;-5.47;79.26
61359;BME280;47228;46.762;23.598;2024-01-30T06:48:10;99586.41;;;-5.39;79.29
61359;BME280;47228;46.762;23.598;2024-01-30T06:50:38;99584.82;;;-5.31;79.33
61359;BME280;47228;46.762;23.598;2024-01-30T06:53:06;99585.61;;;-5.23;79.09
61359;BME280;47228;46.762;23.598;2024-01-30T06:55:35;99582.64;;;-5.17;78.86
61359;BME280;47228;46.762;23.598;2024-01-30T06:58:03;99584.67;;;-5.10;78.79
61359;BME280;47228;46.762;23.598;2024-01-30T07:00:34;99587.36;;;-5.02;78.93
61359;BME280;47228;46.762;23.598;2024-01-30T07:03:02;99587.42;;;-4.93;78.85
61359;BME280;47228;46.762;23.598;2024-01-30T07:05:30;99589.39;;;-4.84;78.59
61359;BME280;47228;46.762;23.598;2024-01-30T07:07:58;99593.25;;;-4.75;78.43
61359;BME280;47228;46.762;23.598;2024-01-30T07:10:26;99593.63;;;-4.66;78.40
61359;BME280;47228;46.762;23.598;2024-01-30T07:12:55;99588.85;;;-4.57;77.94
61359;BME280;47228;46.762;23.598;2024-01-30T07:15:23;99585.00;;;-4.50;77.74
61359;BME280;47228;46.762;23.598;2024-01-30T07:17:51;99586.27;;;-4.47;77.18
61359;BME280;47228;46.762;23.598;2024-01-30T07:20:19;99586.98;;;-4.43;76.93
61359;BME280;47228;46.762;23.598;2024-01-30T07:22:48;99585.64;;;-4.38;76.62
61359;BME280;47228;46.762;23.598;2024-01-30T07:25:16;99584.80;;;-4.34;76.61
61359;BME280;47228;46.762;23.598;2024-01-30T07:27:45;99589.11;;;-4.29;76.56
61359;BME280;47228;46.762;23.598;2024-01-30T07:30:13;99587.98;;;-4.26;76.22
61359;BME280;47228;46.762;23.598;2024-01-30T07:32:41;99591.20;;;-4.20;76.32
61359;BME280;47228;46.762;23.598;2024-01-30T07:35:09;99593.83;;;-4.10;76.41
61359;BME280;47228;46.762;23.598;2024-01-30T07:37:39;99587.79;;;-4.01;76.10
61359;BME280;47228;46.762;23.598;2024-01-30T07:40:08;99593.28;;;-3.90;76.28
61359;BME280;47228;46.762;23.598;2024-01-30T07:42:36;99590.57;;;-3.77;76.31
61359;BME280;47228;46.762;23.598;2024-01-30T07:45:04;99588.38;;;-3.64;76.08
61359;BME280;47228;46.762;23.598;2024-01-30T07:47:33;99590.45;;;-3.50;76.04
61359;BME280;47228;46.762;23.598;2024-01-30T07:50:01;99594.15;;;-3.38;75.64
61359;BME280;47228;46.762;23.598;2024-01-30T07:52:29;99589.73;;;-3.27;75.51
61359;BME280;47228;46.762;23.598;2024-01-30T07:54:57;99588.23;;;-3.15;75.11
61359;BME280;47228;46.762;23.598;2024-01-30T07:57:25;99590.85;;;-3.02;74.87
61359;BME280;47228;46.762;23.598;2024-01-30T07:59:54;99587.77;;;-2.90;74.40
61359;BME280;47228;46.762;23.598;2024-01-30T08:02:22;99589.33;;;-2.81;73.83
61359;BME280;47228;46.762;23.598;2024-01-30T08:04:50;99593.63;;;-2.72;73.45
61359;BME280;47228;46.762;23.598;2024-01-30T08:07:18;99594.73;;;-2.65;72.95
61359;BME280;47228;46.762;23.598;2024-01-30T08:09:47;99593.52;;;-2.65;71.99
61359;BME280;47228;46.762;23.598;2024-01-30T08:12:16;99593.98;;;-2.68;71.43
61359;BME280;47228;46.762;23.598;2024-01-30T08:14:44;99595.47;;;-2.66;71.62
61359;BME280;47228;46.762;23.598;2024-01-30T08:17:12;99591.48;;;-2.57;71.80
61359;BME280;47228;46.762;23.598;2024-01-30T08:19:40;99586.38;;;-2.47;71.70
61359;BME280;47228;46.762;23.598;2024-01-30T08:22:08;99585.20;;;-2.35;71.56
61359;BME280;47228;46.762;23.598;2024-01-30T08:24:37;99587.73;;;-2.22;71.61
61359;BME280;47228;46.762;23.598;2024-01-30T08:27:06;99589.79;;;-2.09;71.26
61359;BME280;47228;46.762;23.598;2024-01-30T08:29:34;99588.58;;;-2.01;70.47
61359;BME280;47228;46.762;23.598;2024-01-30T08:32:03;99590.86;;;-1.93;70.20
61359;BME280;47228;46.762;23.598;2024-01-30T08:34:32;99591.39;;;-1.86;70.15
61359;BME280;47228;46.762;23.598;2024-01-30T08:37:00;99588.25;;;-1.78;70.20
61359;BME280;47228;46.762;23.598;2024-01-30T08:39:28;99588.16;;;-1.68;69.87
61359;BME280;47228;46.762;23.598;2024-01-30T08:41:56;99585.70;;;-1.60;69.50
61359;BME280;47228;46.762;23.598;2024-01-30T08:44:25;99585.97;;;-1.54;69.14
61359;BME280;47228;46.762;23.598;2024-01-30T08:46:55;99585.93;;;-1.50;68.98
61359;BME280;47228;46.762;23.598;2024-01-30T08:49:24;99585.23;;;-1.45;68.68
61359;BME280;47228;46.762;23.598;2024-01-30T08:51:53;99585.04;;;-1.45;68.10
61359;BME280;47228;46.762;23.598;2024-01-30T08:54:21;99582.55;;;-1.44;67.83
61359;BME280;47228;46.762;23.598;2024-01-30T08:56:50;99580.48;;;-1.40;67.87
61359;BME280;47228;46.762;23.598;2024-01-30T08:59:20;99582.10;;;-1.38;67.64
61359;BME280;47228;46.762;23.598;2024-01-30T09:01:48;99584.65;;;-1.36;67.32
61359;BME280;47228;46.762;23.598;2024-01-30T09:04:30;99584.05;;;-1.38;66.77
61359;BME280;47228;46.762;23.598;2024-01-30T09:06:58;99581.50;;;-1.44;66.51
61359;BME280;47228;46.762;23.598;2024-01-30T09:09:26;99582.38;;;-1.44;66.88
61359;BME280;47228;46.762;23.598;2024-01-30T09:11:54;99581.25;;;-1.42;66.93
61359;BME280;47228;46.762;23.598;2024-01-30T09:14:23;99582.20;;;-1.39;67.08
61359;BME280;47228;46.762;23.598;2024-01-30T09:16:51;99580.45;;;-1.40;66.91
61359;BME280;47228;46.762;23.598;2024-01-30T09:19:19;99581.05;;;-1.41;66.67
61359;BME280;47228;46.762;23.598;2024-01-30T09:21:47;99574.60;;;-1.45;66.44
61359;BME280;47228;46.762;23.598;2024-01-30T09:24:15;99573.93;;;-1.45;66.74
61359;BME280;47228;46.762;23.598;2024-01-30T09:26:43;99569.77;;;-1.41;67.18
61359;BME280;47228;46.762;23.598;2024-01-30T09:29:11;99566.65;;;-1.38;67.19
61359;BME280;47228;46.762;23.598;2024-01-30T09:31:43;99563.94;;;-1.36;67.32
61359;BME280;47228;46.762;23.598;2024-01-30T09:34:12;99564.27;;;-1.32;67.59
61359;BME280;47228;46.762;23.598;2024-01-30T09:36:40;99561.44;;;-1.27;67.71
61359;BME280;47228;46.762;23.598;2024-01-30T09:39:08;99556.54;;;-1.23;67.77
61359;BME280;47228;46.762;23.598;2024-01-30T09:41:45;99555.69;;;-1.19;67.55
61359;BME280;47228;46.762;23.598;2024-01-30T09:44:16;99549.57;;;-1.19;67.04
61359;BME280;47228;46.762;23.598;2024-01-30T09:46:47;99551.36;;;-1.16;67.34
61359;BME280;47228;46.762;23.598;2024-01-30T09:49:18;99548.85;;;-1.11;67.33
61359;BME280;47228;46.762;23.598;2024-01-30T09:51:48;99542.91;;;-1.07;67.31
61359;BME280;47228;46.762;23.598;2024-01-30T09:54:18;99542.07;;;-1.00;67.33
61359;BME280;47228;46.762;23.598;2024-01-30T09:56:47;99537.43;;;-0.94;67.06
61359;BME280;47228;46.762;23.598;2024-01-30T09:59:15;99535.80;;;-0.89;66.63
61359;BME280;47228;46.762;23.598;2024-01-30T10:01:44;99533.67;;;-0.85;66.47
61359;BME280;47228;46.762;23.598;2024-01-30T10:04:12;99534.11;;;-0.80;66.50
61359;BME280;47228;46.762;23.598;2024-01-30T10:06:41;99529.65;;;-0.77;66.34
61359;BME280;47228;46.762;23.598;2024-01-30T10:09:10;99526.02;;;-0.74;66.27
61359;BME280;47228;46.762;23.598;2024-01-30T10:11:38;99526.36;;;-0.71;66.44
61359;BME280;47228;46.762;23.598;2024-01-30T10:14:06;99525.80;;;-0.66;66.52
61359;BME280;47228;46.762;23.598;2024-01-30T10:16:35;99524.63;;;-0.60;66.72
61359;BME280;47228;46.762;23.598;2024-01-30T10:19:03;99526.17;;;-0.53;66.69
61359;BME280;47228;46.762;23.598;2024-01-30T10:21:31;99524.55;;;-0.45;66.64
61359;BME280;47228;46.762;23.598;2024-01-30T10:24:00;99524.00;;;-0.38;66.58
61359;BME280;47228;46.762;23.598;2024-01-30T10:26:28;99527.59;;;-0.33;66.21
61359;BME280;47228;46.762;23.598;2024-01-30T10:28:57;99524.55;;;-0.28;66.39
61359;BME280;47228;46.762;23.598;2024-01-30T10:31:25;99521.20;;;-0.24;66.42
61359;BME280;47228;46.762;23.598;2024-01-30T10:33:53;99515.18;;;-0.18;66.38
61359;BME280;47228;46.762;23.598;2024-01-30T10:36:42;99514.88;;;-0.12;66.35
61359;BME280;47228;46.762;23.598;2024-01-30T10:39:17;99509.69;;;-0.06;65.93
61359;BME280;47228;46.762;23.598;2024-01-30T10:41:47;99505.59;;;-0.02;65.68
61359;BME280;47228;46.762;23.598;2024-01-30T10:44:19;99498.70;;;0.04;65.85
61359;BME280;47228;46.762;23.598;2024-01-30T10:46:56;99498.05;;;0.09;65.82
61359;BME280;47228;46.762;23.598;2024-01-30T10:49:28;99496.91;;;0.14;65.68
61359;BME280;47228;46.762;23.598;2024-01-30T10:51:58;99495.82;;;0.19;65.58
61359;BME280;47228;46.762;23.598;2024-01-30T10:54:27;99493.67;;;0.22;65.48
61359;BME280;47228;46.762;23.598;2024-01-30T10:56:57;99494.18;;;0.29;65.36
61359;BME280;47228;46.762;23.598;2024-01-30T10:59:28;99493.58;;;0.34;65.20
61359;BME280;47228;46.762;23.598;2024-01-30T11:01:59;99487.06;;;0.39;65.12
61359;BME280;47228;46.762;23.598;2024-01-30T11:04:40;99483.00;;;0.40;64.66
61359;BME280;47228;46.762;23.598;2024-01-30T11:07:23;99478.41;;;0.41;64.44
61359;BME280;47228;46.762;23.598;2024-01-30T11:09:54;99477.67;;;0.44;64.19
61359;BME280;47228;46.762;23.598;2024-01-30T11:12:37;99477.34;;;0.47;63.97
61359;BME280;47228;46.762;23.598;2024-01-30T11:15:15;99471.73;;;0.51;63.97
61359;BME280;47228;46.762;23.598;2024-01-30T11:17:49;99468.35;;;0.55;63.89
61359;BME280;47228;46.762;23.598;2024-01-30T11:20:29;99467.59;;;0.60;63.88
61359;BME280;47228;46.762;23.598;2024-01-30T11:23:01;99466.02;;;0.66;63.94
61359;BME280;47228;46.762;23.598;2024-01-30T11:25:35;99462.22;;;0.72;63.98
61359;BME280;47228;46.762;23.598;2024-01-30T11:28:04;99459.61;;;0.78;63.88
61359;BME280;47228;46.762;23.598;2024-01-30T11:30:35;99454.11;;;0.82;63.72
61359;BME280;47228;46.762;23.598;2024-01-30T11:33:08;99451.23;;;0.86;63.83
61359;BME280;47228;46.762;23.598;2024-01-30T11:35:46;99450.55;;;0.93;63.92
61359;BME280;47228;46.762;23.598;2024-01-30T11:38:19;99448.62;;;0.99;63.72
61359;BME280;47228;46.762;23.598;2024-01-30T11:40:52;99445.52;;;1.04;63.44
61359;BME280;47228;46.762;23.598;2024-01-30T11:43:25;99441.12;;;1.11;63.65
61359;BME280;47228;46.762;23.598;2024-01-30T11:45:56;99440.67;;;1.21;63.60
61359;BME280;47228;46.762;23.598;2024-01-30T11:48:26;99439.58;;;1.31;63.22
61359;BME280;47228;46.762;23.598;2024-01-30T11:50:54;99435.95;;;1.39;63.13
61359;BME280;47228;46.762;23.598;2024-01-30T11:53:22;99433.04;;;1.50;63.19
61359;BME280;47228;46.762;23.598;2024-01-30T11:55:51;99431.77;;;1.60;62.84
61359;BME280;47228;46.762;23.598;2024-01-30T11:58:19;99431.31;;;1.67;62.47
61359;BME280;47228;46.762;23.598;2024-01-30T12:00:59;99429.51;;;1.74;62.54
61359;BME280;47228;46.762;23.598;2024-01-30T12:03:33;99425.77;;;1.81;62.48
61359;BME280;47228;46.762;23.598;2024-01-30T12:06:02;99421.36;;;1.87;62.02
61359;BME280;47228;46.762;23.598;2024-01-30T12:08:35;99418.86;;;1.90;61.86
61359;BME280;47228;46.762;23.598;2024-01-30T12:11:06;99417.16;;;1.92;61.85
61359;BME280;47228;46.762;23.598;2024-01-30T12:13:34;99415.36;;;1.93;61.87
61359;BME280;47228;46.762;23.598;2024-01-30T12:16:03;99413.20;;;1.97;61.81
61359;BME280;47228;46.762;23.598;2024-01-30T12:18:32;99406.71;;;2.00;61.71
61359;BME280;47228;46.762;23.598;2024-01-30T12:21:00;99400.29;;;2.02;61.76
61359;BME280;47228;46.762;23.598;2024-01-30T12:24:09;99394.91;;;2.05;61.62
61359;BME280;47228;46.762;23.598;2024-01-30T12:26:41;99389.73;;;2.06;61.38
61359;BME280;47228;46.762;23.598;2024-01-30T12:29:10;99385.18;;;2.10;61.33
61359;BME280;47228;46.762;23.598;2024-01-30T12:31:38;99383.38;;;2.10;61.17
61359;BME280;47228;46.762;23.598;2024-01-30T12:34:09;99379.64;;;2.11;61.16
61359;BME280;47228;46.762;23.598;2024-01-30T12:36:41;99378.34;;;2.13;60.97
61359;BME280;47228;46.762;23.598;2024-01-30T12:39:13;99377.48;;;2.12;60.70
61359;BME280;47228;46.762;23.598;2024-01-30T12:41:42;99377.77;;;2.13;60.65
61359;BME280;47228;46.762;23.598;2024-01-30T12:44:13;99375.15;;;2.13;60.76
61359;BME280;47228;46.762;23.598;2024-01-30T12:46:42;99370.02;;;2.14;60.88
61359;BME280;47228;46.762;23.598;2024-01-30T12:49:12;99369.58;;;2.16;61.20
61359;BME280;47228;46.762;23.598;2024-01-30T12:51:41;99368.79;;;2.14;60.92
61359;BME280;47228;46.762;23.598;2024-01-30T12:54:10;99369.94;;;2.13;60.89
61359;BME280;47228;46.762;23.598;2024-01-30T12:56:40;99365.99;;;2.14;61.13
61359;BME280;47228;46.762;23.598;2024-01-30T12:59:08;99367.46;;;2.16;60.93
61359;BME280;47228;46.762;23.598;2024-01-30T13:01:36;99370.95;;;2.18;61.00
61359;BME280;47228;46.762;23.598;2024-01-30T13:04:04;99365.79;;;2.20;60.96